sensor_id;sensor_type;location;lat;lon;timestamp;P1;durP1;ratioP1;P2;durP2;ratioP2
59263;SDS011;45030;42.720;23.344;2022-12-18T00:00:03;14.85;;;8.00;;
59263;SDS011;45030;42.720;23.344;2022-12-18T00:02:29;11.95;;;8.27;;
59263;SDS011;45030;42.720;23.344;2022-12-18T00:04:54;14.07;;;9.32;;
59263;SDS011;45030;42.720;23.344;2022-12-18T00:07:19;16.35;;;10.52;;
59263;SDS011;45030;42.720;23.344;2022-12-18T00:09:45;13.23;;;8.18;;
59263;SDS011;45030;42.720;23.344;2022-12-18T00:12:10;13.88;;;10.60;;
59263;SDS011;45030;42.720;23.344;2022-12-18T00:14:35;11.55;;;7.47;;
59263;SDS011;45030;42.720;23.344;2022-12-18T00:17:01;14.00;;;10.20;;
59263;SDS011;45030;42.720;23.344;2022-12-18T00:19:27;11.32;;;8.63;;
59263;SDS011;45030;42.720;23.344;2022-12-18T00:21:52;16.58;;;11.52;;
59263;SDS011;45030;42.720;23.344;2022-12-18T00:24:18;14.10;;;8.70;;
59263;SDS011;45030;42.720;23.344;2022-12-18T00:26:43;13.13;;;9.10;;
59263;SDS011;45030;42.720;23.344;2022-12-18T00:29:12;15.75;;;11.50;;
59263;SDS011;45030;42.720;23.344;2022-12-18T00:31:41;16.20;;;10.25;;
59263;SDS011;45030;42.720;23.344;2022-12-18T00:34:08;16.05;;;10.88;;
59263;SDS011;45030;42.720;23.344;2022-12-18T00:36:34;12.85;;;8.98;;
59263;SDS011;45030;42.720;23.344;2022-12-18T00:39:00;13.70;;;8.40;;
59263;SDS011;45030;42.720;23.344;2022-12-18T00:41:27;17.67;;;10.20;;
59263;SDS011;45030;42.720;23.344;2022-12-18T00:46:36;16.20;;;8.52;;
59263;SDS011;45030;42.720;23.344;2022-12-18T00:49:02;12.98;;;8.38;;
59263;SDS011;45030;42.720;23.344;2022-12-18T00:51:27;17.85;;;12.07;;
59263;SDS011;45030;42.720;23.344;2022-12-18T00:53:52;15.25;;;9.93;;
59263;SDS011;45030;42.720;23.344;2022-12-18T00:56:18;15.70;;;9.82;;
59263;SDS011;45030;42.720;23.344;2022-12-18T00:58:43;18.83;;;8.98;;
59263;SDS011;45030;42.720;23.344;2022-12-18T01:01:08;15.05;;;9.10;;
59263;SDS011;45030;42.720;23.344;2022-12-18T01:03:33;14.23;;;8.82;;
59263;SDS011;45030;42.720;23.344;2022-12-18T01:05:59;18.30;;;11.43;;
59263;SDS011;45030;42.720;23.344;2022-12-18T01:08:24;16.63;;;9.68;;
59263;SDS011;45030;42.720;23.344;2022-12-18T01:10:49;18.25;;;11.55;;
59263;SDS011;45030;42.720;23.344;2022-12-18T01:13:14;16.73;;;9.15;;
59263;SDS011;45030;42.720;23.344;2022-12-18T01:15:40;13.65;;;7.93;;
59263;SDS011;45030;42.720;23.344;2022-12-18T01:18:05;17.95;;;12.25;;
59263;SDS011;45030;42.720;23.344;2022-12-18T01:20:31;17.33;;;12.15;;
59263;SDS011;45030;42.720;23.344;2022-12-18T01:22:56;19.45;;;13.05;;
59263;SDS011;45030;42.720;23.344;2022-12-18T01:25:21;13.88;;;8.80;;
59263;SDS011;45030;42.720;23.344;2022-12-18T01:27:46;19.20;;;12.50;;
59263;SDS011;45030;42.720;23.344;2022-12-18T01:30:12;15.35;;;8.23;;
59263;SDS011;45030;42.720;23.344;2022-12-18T01:32:37;12.82;;;8.73;;
59263;SDS011;45030;42.720;23.344;2022-12-18T01:35:02;14.85;;;9.15;;
59263;SDS011;45030;42.720;23.344;2022-12-18T01:37:28;13.52;;;9.65;;
59263;SDS011;45030;42.720;23.344;2022-12-18T01:39:53;14.95;;;10.57;;
59263;SDS011;45030;42.720;23.344;2022-12-18T01:42:22;21.38;;;13.18;;
59263;SDS011;45030;42.720;23.344;2022-12-18T01:47:17;13.48;;;9.25;;
59263;SDS011;45030;42.720;23.344;2022-12-18T01:49:43;11.65;;;8.43;;
59263;SDS011;45030;42.720;23.344;2022-12-18T01:52:08;14.70;;;9.82;;
59263;SDS011;45030;42.720;23.344;2022-12-18T01:54:33;13.80;;;9.52;;
59263;SDS011;45030;42.720;23.344;2022-12-18T01:56:59;14.77;;;9.50;;
59263;SDS011;45030;42.720;23.344;2022-12-18T01:59:25;13.02;;;9.38;;
59263;SDS011;45030;42.720;23.344;2022-12-18T02:01:51;12.77;;;8.13;;
59263;SDS011;45030;42.720;23.344;2022-12-18T02:04:18;17.63;;;10.27;;
59263;SDS011;45030;42.720;23.344;2022-12-18T02:06:44;14.88;;;9.35;;
59263;SDS011;45030;42.720;23.344;2022-12-18T02:09:12;16.27;;;11.10;;
59263;SDS011;45030;42.720;23.344;2022-12-18T02:12:13;16.73;;;11.10;;
59263;SDS011;45030;42.720;23.344;2022-12-18T02:17:06;17.73;;;12.30;;
59263;SDS011;45030;42.720;23.344;2022-12-18T02:27:08;12.93;;;8.85;;
59263;SDS011;45030;42.720;23.344;2022-12-18T02:29:36;10.63;;;7.32;;
59263;SDS011;45030;42.720;23.344;2022-12-18T02:32:03;12.68;;;9.05;;
59263;SDS011;45030;42.720;23.344;2022-12-18T02:34:31;16.52;;;9.75;;
59263;SDS011;45030;42.720;23.344;2022-12-18T02:36:58;13.32;;;9.07;;
59263;SDS011;45030;42.720;23.344;2022-12-18T02:39:25;14.65;;;9.52;;
59263;SDS011;45030;42.720;23.344;2022-12-18T02:41:51;11.55;;;8.27;;
59263;SDS011;45030;42.720;23.344;2022-12-18T02:44:17;12.15;;;7.13;;
59263;SDS011;45030;42.720;23.344;2022-12-18T02:46:43;15.07;;;11.07;;
59263;SDS011;45030;42.720;23.344;2022-12-18T02:51:49;10.30;;;7.00;;
59263;SDS011;45030;42.720;23.344;2022-12-18T02:56:51;13.38;;;8.32;;
59263;SDS011;45030;42.720;23.344;2022-12-18T02:59:17;13.02;;;7.38;;
59263;SDS011;45030;42.720;23.344;2022-12-18T03:01:51;11.68;;;7.68;;
59263;SDS011;45030;42.720;23.344;2022-12-18T03:04:33;15.30;;;9.27;;
59263;SDS011;45030;42.720;23.344;2022-12-18T03:07:01;14.75;;;6.65;;
59263;SDS011;45030;42.720;23.344;2022-12-18T03:09:32;13.43;;;9.63;;
59263;SDS011;45030;42.720;23.344;2022-12-18T03:12:04;16.02;;;11.93;;
59263;SDS011;45030;42.720;23.344;2022-12-18T03:17:19;13.68;;;9.38;;
59263;SDS011;45030;42.720;23.344;2022-12-18T03:19:47;17.33;;;12.00;;
59263;SDS011;45030;42.720;23.344;2022-12-18T03:22:13;17.33;;;11.35;;
59263;SDS011;45030;42.720;23.344;2022-12-18T03:24:41;15.85;;;9.23;;
59263;SDS011;45030;42.720;23.344;2022-12-18T03:27:08;15.45;;;10.95;;
59263;SDS011;45030;42.720;23.344;2022-12-18T03:29:36;12.48;;;7.93;;
59263;SDS011;45030;42.720;23.344;2022-12-18T03:32:10;13.02;;;9.55;;
59263;SDS011;45030;42.720;23.344;2022-12-18T03:34:37;15.05;;;9.65;;
59263;SDS011;45030;42.720;23.344;2022-12-18T03:37:03;12.63;;;9.43;;
59263;SDS011;45030;42.720;23.344;2022-12-18T03:39:29;14.10;;;6.95;;
59263;SDS011;45030;42.720;23.344;2022-12-18T03:42:03;13.82;;;9.52;;
59263;SDS011;45030;42.720;23.344;2022-12-18T03:44:31;13.77;;;9.48;;
59263;SDS011;45030;42.720;23.344;2022-12-18T03:47:04;11.32;;;7.30;;
59263;SDS011;45030;42.720;23.344;2022-12-18T03:52:28;12.32;;;7.43;;
59263;SDS011;45030;42.720;23.344;2022-12-18T03:54:55;11.73;;;8.30;;
59263;SDS011;45030;42.720;23.344;2022-12-18T03:57:21;16.08;;;10.63;;
59263;SDS011;45030;42.720;23.344;2022-12-18T03:59:49;11.00;;;7.63;;
59263;SDS011;45030;42.720;23.344;2022-12-18T04:02:16;14.93;;;10.07;;
59263;SDS011;45030;42.720;23.344;2022-12-18T04:04:41;12.52;;;9.23;;
59263;SDS011;45030;42.720;23.344;2022-12-18T04:07:07;13.27;;;9.15;;
59263;SDS011;45030;42.720;23.344;2022-12-18T04:09:33;16.17;;;9.75;;
59263;SDS011;45030;42.720;23.344;2022-12-18T04:11:59;18.38;;;11.50;;
59263;SDS011;45030;42.720;23.344;2022-12-18T04:14:24;19.98;;;12.48;;
59263;SDS011;45030;42.720;23.344;2022-12-18T04:16:49;15.70;;;10.20;;
59263;SDS011;45030;42.720;23.344;2022-12-18T04:19:15;17.70;;;11.73;;
59263;SDS011;45030;42.720;23.344;2022-12-18T04:21:40;16.55;;;8.95;;
59263;SDS011;45030;42.720;23.344;2022-12-18T04:24:05;17.30;;;11.30;;
59263;SDS011;45030;42.720;23.344;2022-12-18T04:26:31;15.40;;;10.57;;
59263;SDS011;45030;42.720;23.344;2022-12-18T04:28:56;20.17;;;12.73;;
59263;SDS011;45030;42.720;23.344;2022-12-18T04:31:21;19.85;;;13.45;;
59263;SDS011;45030;42.720;23.344;2022-12-18T04:33:46;22.00;;;14.27;;
59263;SDS011;45030;42.720;23.344;2022-12-18T04:36:12;15.95;;;10.90;;
59263;SDS011;45030;42.720;23.344;2022-12-18T04:38:37;19.83;;;12.75;;
59263;SDS011;45030;42.720;23.344;2022-12-18T04:41:03;20.77;;;12.48;;
59263;SDS011;45030;42.720;23.344;2022-12-18T04:43:28;22.15;;;13.63;;
59263;SDS011;45030;42.720;23.344;2022-12-18T04:45:53;23.45;;;14.23;;
59263;SDS011;45030;42.720;23.344;2022-12-18T04:48:19;21.42;;;13.38;;
59263;SDS011;45030;42.720;23.344;2022-12-18T04:50:46;19.63;;;12.38;;
59263;SDS011;45030;42.720;23.344;2022-12-18T04:53:11;25.63;;;15.95;;
59263;SDS011;45030;42.720;23.344;2022-12-18T04:55:36;18.48;;;11.27;;
59263;SDS011;45030;42.720;23.344;2022-12-18T04:58:01;28.58;;;16.67;;
59263;SDS011;45030;42.720;23.344;2022-12-18T05:00:27;26.35;;;15.20;;
59263;SDS011;45030;42.720;23.344;2022-12-18T05:02:52;26.83;;;17.35;;
59263;SDS011;45030;42.720;23.344;2022-12-18T05:05:18;22.75;;;13.18;;
59263;SDS011;45030;42.720;23.344;2022-12-18T05:07:43;26.20;;;14.40;;
59263;SDS011;45030;42.720;23.344;2022-12-18T05:10:09;30.10;;;17.33;;
59263;SDS011;45030;42.720;23.344;2022-12-18T05:12:34;23.63;;;13.63;;
59263;SDS011;45030;42.720;23.344;2022-12-18T05:15:19;25.75;;;15.23;;
59263;SDS011;45030;42.720;23.344;2022-12-18T05:17:44;15.27;;;9.95;;
59263;SDS011;45030;42.720;23.344;2022-12-18T05:20:10;20.40;;;11.43;;
59263;SDS011;45030;42.720;23.344;2022-12-18T05:22:35;22.13;;;13.73;;
59263;SDS011;45030;42.720;23.344;2022-12-18T05:25:00;24.90;;;15.82;;
59263;SDS011;45030;42.720;23.344;2022-12-18T05:27:25;21.88;;;13.40;;
59263;SDS011;45030;42.720;23.344;2022-12-18T05:29:51;28.10;;;16.95;;
59263;SDS011;45030;42.720;23.344;2022-12-18T05:32:16;24.92;;;16.15;;
59263;SDS011;45030;42.720;23.344;2022-12-18T05:34:41;27.02;;;18.33;;
59263;SDS011;45030;42.720;23.344;2022-12-18T05:37:06;20.33;;;13.32;;
59263;SDS011;45030;42.720;23.344;2022-12-18T05:39:32;27.05;;;15.45;;
59263;SDS011;45030;42.720;23.344;2022-12-18T05:41:57;21.52;;;12.50;;
59263;SDS011;45030;42.720;23.344;2022-12-18T05:44:22;27.10;;;16.77;;
59263;SDS011;45030;42.720;23.344;2022-12-18T05:46:48;25.48;;;15.77;;
59263;SDS011;45030;42.720;23.344;2022-12-18T05:49:13;24.08;;;13.43;;
59263;SDS011;45030;42.720;23.344;2022-12-18T05:51:38;24.23;;;14.27;;
59263;SDS011;45030;42.720;23.344;2022-12-18T05:54:03;25.67;;;16.20;;
59263;SDS011;45030;42.720;23.344;2022-12-18T05:56:28;21.73;;;13.50;;
59263;SDS011;45030;42.720;23.344;2022-12-18T05:58:54;25.40;;;13.98;;
59263;SDS011;45030;42.720;23.344;2022-12-18T06:01:21;24.25;;;15.05;;
59263;SDS011;45030;42.720;23.344;2022-12-18T06:03:47;22.95;;;14.38;;
59263;SDS011;45030;42.720;23.344;2022-12-18T06:06:22;26.45;;;17.60;;
59263;SDS011;45030;42.720;23.344;2022-12-18T06:08:48;21.85;;;13.18;;
59263;SDS011;45030;42.720;23.344;2022-12-18T06:11:15;21.45;;;15.52;;
59263;SDS011;45030;42.720;23.344;2022-12-18T06:13:41;21.52;;;12.07;;
59263;SDS011;45030;42.720;23.344;2022-12-18T06:16:06;28.77;;;14.40;;
59263;SDS011;45030;42.720;23.344;2022-12-18T06:18:32;24.38;;;13.70;;
59263;SDS011;45030;42.720;23.344;2022-12-18T06:20:57;26.50;;;13.88;;
59263;SDS011;45030;42.720;23.344;2022-12-18T06:23:23;26.58;;;15.32;;
59263;SDS011;45030;42.720;23.344;2022-12-18T06:25:48;26.23;;;15.27;;
59263;SDS011;45030;42.720;23.344;2022-12-18T06:28:14;16.85;;;11.25;;
59263;SDS011;45030;42.720;23.344;2022-12-18T06:30:39;21.48;;;12.57;;
59263;SDS011;45030;42.720;23.344;2022-12-18T06:33:04;23.85;;;14.10;;
59263;SDS011;45030;42.720;23.344;2022-12-18T06:35:31;22.38;;;13.38;;
59263;SDS011;45030;42.720;23.344;2022-12-18T06:37:57;18.13;;;10.65;;
59263;SDS011;45030;42.720;23.344;2022-12-18T06:40:22;20.83;;;14.02;;
59263;SDS011;45030;42.720;23.344;2022-12-18T06:42:47;24.42;;;15.18;;
59263;SDS011;45030;42.720;23.344;2022-12-18T06:45:12;19.65;;;12.35;;
59263;SDS011;45030;42.720;23.344;2022-12-18T06:47:38;21.65;;;14.00;;
59263;SDS011;45030;42.720;23.344;2022-12-18T06:50:03;24.20;;;14.98;;
59263;SDS011;45030;42.720;23.344;2022-12-18T06:52:31;18.08;;;11.23;;
59263;SDS011;45030;42.720;23.344;2022-12-18T06:54:56;22.42;;;12.73;;
59263;SDS011;45030;42.720;23.344;2022-12-18T06:57:21;25.00;;;16.05;;
59263;SDS011;45030;42.720;23.344;2022-12-18T06:59:46;27.67;;;15.48;;
59263;SDS011;45030;42.720;23.344;2022-12-18T07:02:12;20.40;;;12.50;;
59263;SDS011;45030;42.720;23.344;2022-12-18T07:04:37;40.92;;;15.45;;
59263;SDS011;45030;42.720;23.344;2022-12-18T07:07:02;26.48;;;14.25;;
59263;SDS011;45030;42.720;23.344;2022-12-18T07:09:28;25.85;;;14.05;;
59263;SDS011;45030;42.720;23.344;2022-12-18T07:11:53;27.80;;;15.10;;
59263;SDS011;45030;42.720;23.344;2022-12-18T07:14:18;20.50;;;12.27;;
59263;SDS011;45030;42.720;23.344;2022-12-18T07:16:44;29.77;;;15.55;;
59263;SDS011;45030;42.720;23.344;2022-12-18T07:19:09;21.38;;;12.98;;
59263;SDS011;45030;42.720;23.344;2022-12-18T07:21:34;19.23;;;12.82;;
59263;SDS011;45030;42.720;23.344;2022-12-18T07:24:00;20.27;;;12.73;;
59263;SDS011;45030;42.720;23.344;2022-12-18T07:26:25;25.17;;;12.50;;
59263;SDS011;45030;42.720;23.344;2022-12-18T07:28:53;25.67;;;14.20;;
59263;SDS011;45030;42.720;23.344;2022-12-18T07:31:20;25.65;;;14.35;;
59263;SDS011;45030;42.720;23.344;2022-12-18T07:33:45;21.65;;;12.98;;
59263;SDS011;45030;42.720;23.344;2022-12-18T07:36:11;23.15;;;14.60;;
59263;SDS011;45030;42.720;23.344;2022-12-18T07:38:36;19.77;;;10.80;;
59263;SDS011;45030;42.720;23.344;2022-12-18T07:41:02;21.25;;;13.23;;
59263;SDS011;45030;42.720;23.344;2022-12-18T07:43:28;22.30;;;14.15;;
59263;SDS011;45030;42.720;23.344;2022-12-18T07:45:53;20.05;;;13.25;;
59263;SDS011;45030;42.720;23.344;2022-12-18T07:48:18;18.35;;;12.73;;
59263;SDS011;45030;42.720;23.344;2022-12-18T07:50:44;20.83;;;12.18;;
59263;SDS011;45030;42.720;23.344;2022-12-18T07:53:09;21.60;;;12.13;;
59263;SDS011;45030;42.720;23.344;2022-12-18T07:55:34;18.55;;;11.82;;
59263;SDS011;45030;42.720;23.344;2022-12-18T07:58:02;25.58;;;15.13;;
59263;SDS011;45030;42.720;23.344;2022-12-18T08:00:28;20.45;;;10.45;;
59263;SDS011;45030;42.720;23.344;2022-12-18T08:02:53;24.52;;;14.13;;
59263;SDS011;45030;42.720;23.344;2022-12-18T08:05:18;23.23;;;12.55;;
59263;SDS011;45030;42.720;23.344;2022-12-18T08:07:44;27.45;;;17.77;;
59263;SDS011;45030;42.720;23.344;2022-12-18T08:10:09;23.02;;;13.65;;
59263;SDS011;45030;42.720;23.344;2022-12-18T08:12:34;20.58;;;14.25;;
59263;SDS011;45030;42.720;23.344;2022-12-18T08:14:59;26.52;;;14.60;;
59263;SDS011;45030;42.720;23.344;2022-12-18T08:17:25;31.88;;;16.45;;
59263;SDS011;45030;42.720;23.344;2022-12-18T08:19:50;21.73;;;13.82;;
59263;SDS011;45030;42.720;23.344;2022-12-18T08:22:16;34.08;;;18.92;;
59263;SDS011;45030;42.720;23.344;2022-12-18T08:24:42;26.05;;;14.07;;
59263;SDS011;45030;42.720;23.344;2022-12-18T08:27:07;19.42;;;11.23;;
59263;SDS011;45030;42.720;23.344;2022-12-18T08:29:32;24.25;;;14.93;;
59263;SDS011;45030;42.720;23.344;2022-12-18T08:31:58;26.17;;;14.88;;
59263;SDS011;45030;42.720;23.344;2022-12-18T08:34:23;25.77;;;13.43;;
59263;SDS011;45030;42.720;23.344;2022-12-18T08:36:49;27.73;;;14.75;;
59263;SDS011;45030;42.720;23.344;2022-12-18T08:39:14;19.15;;;11.88;;
59263;SDS011;45030;42.720;23.344;2022-12-18T08:41:39;18.83;;;12.45;;
59263;SDS011;45030;42.720;23.344;2022-12-18T08:44:06;27.00;;;13.38;;
59263;SDS011;45030;42.720;23.344;2022-12-18T08:46:50;21.10;;;12.73;;
59263;SDS011;45030;42.720;23.344;2022-12-18T08:49:15;23.63;;;14.07;;
59263;SDS011;45030;42.720;23.344;2022-12-18T08:51:41;22.50;;;12.48;;
59263;SDS011;45030;42.720;23.344;2022-12-18T08:54:06;22.70;;;13.77;;
59263;SDS011;45030;42.720;23.344;2022-12-18T08:56:31;23.92;;;12.85;;
59263;SDS011;45030;42.720;23.344;2022-12-18T08:58:57;24.77;;;13.45;;
59263;SDS011;45030;42.720;23.344;2022-12-18T09:01:22;20.23;;;11.93;;
59263;SDS011;45030;42.720;23.344;2022-12-18T09:03:48;20.50;;;12.70;;
59263;SDS011;45030;42.720;23.344;2022-12-18T09:06:14;26.90;;;13.00;;
59263;SDS011;45030;42.720;23.344;2022-12-18T09:08:40;27.60;;;14.35;;
59263;SDS011;45030;42.720;23.344;2022-12-18T09:11:10;22.85;;;12.07;;
59263;SDS011;45030;42.720;23.344;2022-12-18T09:13:36;20.58;;;10.70;;
59263;SDS011;45030;42.720;23.344;2022-12-18T09:16:02;23.80;;;14.52;;
59263;SDS011;45030;42.720;23.344;2022-12-18T09:18:28;22.70;;;13.13;;
59263;SDS011;45030;42.720;23.344;2022-12-18T09:20:53;28.40;;;15.63;;
59263;SDS011;45030;42.720;23.344;2022-12-18T09:23:18;27.40;;;14.60;;
59263;SDS011;45030;42.720;23.344;2022-12-18T09:25:44;19.42;;;12.57;;
59263;SDS011;45030;42.720;23.344;2022-12-18T09:28:10;21.13;;;11.82;;
59263;SDS011;45030;42.720;23.344;2022-12-18T09:30:40;22.10;;;14.30;;
59263;SDS011;45030;42.720;23.344;2022-12-18T09:33:06;19.05;;;11.88;;
59263;SDS011;45030;42.720;23.344;2022-12-18T09:35:31;23.25;;;12.15;;
59263;SDS011;45030;42.720;23.344;2022-12-18T09:37:56;26.27;;;15.75;;
59263;SDS011;45030;42.720;23.344;2022-12-18T09:40:23;32.75;;;15.30;;
59263;SDS011;45030;42.720;23.344;2022-12-18T09:42:52;25.15;;;12.68;;
59263;SDS011;45030;42.720;23.344;2022-12-18T09:45:18;27.95;;;15.50;;
59263;SDS011;45030;42.720;23.344;2022-12-18T09:47:44;23.52;;;13.82;;
59263;SDS011;45030;42.720;23.344;2022-12-18T09:50:17;22.52;;;13.75;;
59263;SDS011;45030;42.720;23.344;2022-12-18T09:52:45;24.52;;;14.63;;
59263;SDS011;45030;42.720;23.344;2022-12-18T09:57:39;20.23;;;12.63;;
59263;SDS011;45030;42.720;23.344;2022-12-18T10:00:14;18.85;;;12.23;;
59263;SDS011;45030;42.720;23.344;2022-12-18T10:02:40;28.13;;;16.92;;
59263;SDS011;45030;42.720;23.344;2022-12-18T10:05:06;29.42;;;15.43;;
59263;SDS011;45030;42.720;23.344;2022-12-18T10:10:00;20.50;;;12.43;;
59263;SDS011;45030;42.720;23.344;2022-12-18T10:12:40;20.83;;;11.48;;
59263;SDS011;45030;42.720;23.344;2022-12-18T10:19:59;25.38;;;14.13;;
59263;SDS011;45030;42.720;23.344;2022-12-18T10:22:43;28.17;;;17.50;;
59263;SDS011;45030;42.720;23.344;2022-12-18T10:27:39;27.20;;;14.07;;
59263;SDS011;45030;42.720;23.344;2022-12-18T10:30:12;15.52;;;10.45;;
59263;SDS011;45030;42.720;23.344;2022-12-18T10:32:38;22.67;;;12.63;;
59263;SDS011;45030;42.720;23.344;2022-12-18T10:35:04;21.45;;;12.75;;
59263;SDS011;45030;42.720;23.344;2022-12-18T10:37:29;27.05;;;14.80;;
59263;SDS011;45030;42.720;23.344;2022-12-18T10:42:32;18.95;;;11.95;;
59263;SDS011;45030;42.720;23.344;2022-12-18T10:45:01;19.23;;;12.25;;
59263;SDS011;45030;42.720;23.344;2022-12-18T10:47:26;15.60;;;9.95;;
59263;SDS011;45030;42.720;23.344;2022-12-18T10:49:52;25.50;;;13.10;;
59263;SDS011;45030;42.720;23.344;2022-12-18T10:52:21;22.65;;;13.00;;
59263;SDS011;45030;42.720;23.344;2022-12-18T10:54:54;22.23;;;12.93;;
59263;SDS011;45030;42.720;23.344;2022-12-18T10:59:54;24.25;;;12.88;;
59263;SDS011;45030;42.720;23.344;2022-12-18T11:04:51;18.33;;;10.77;;
59263;SDS011;45030;42.720;23.344;2022-12-18T11:07:16;22.00;;;12.70;;
59263;SDS011;45030;42.720;23.344;2022-12-18T11:09:42;24.38;;;13.35;;
59263;SDS011;45030;42.720;23.344;2022-12-18T11:17:16;23.05;;;12.90;;
59263;SDS011;45030;42.720;23.344;2022-12-18T11:19:42;24.80;;;12.20;;
59263;SDS011;45030;42.720;23.344;2022-12-18T11:22:30;19.50;;;11.60;;
59263;SDS011;45030;42.720;23.344;2022-12-18T11:25:00;27.30;;;14.15;;
59263;SDS011;45030;42.720;23.344;2022-12-18T11:27:26;25.23;;;15.32;;
59263;SDS011;45030;42.720;23.344;2022-12-18T11:29:52;26.17;;;16.27;;
59263;SDS011;45030;42.720;23.344;2022-12-18T11:34:46;20.27;;;13.07;;
59263;SDS011;45030;42.720;23.344;2022-12-18T11:37:13;19.45;;;10.85;;
59263;SDS011;45030;42.720;23.344;2022-12-18T11:39:42;25.83;;;14.10;;
59263;SDS011;45030;42.720;23.344;2022-12-18T11:47:05;26.65;;;13.68;;
59263;SDS011;45030;42.720;23.344;2022-12-18T11:49:35;24.23;;;14.85;;
59263;SDS011;45030;42.720;23.344;2022-12-18T11:52:13;25.75;;;12.65;;
59263;SDS011;45030;42.720;23.344;2022-12-18T11:54:40;21.58;;;12.60;;
59263;SDS011;45030;42.720;23.344;2022-12-18T11:59:44;32.88;;;19.13;;
59263;SDS011;45030;42.720;23.344;2022-12-18T12:04:53;26.90;;;17.10;;
59263;SDS011;45030;42.720;23.344;2022-12-18T12:07:24;20.58;;;13.23;;
59263;SDS011;45030;42.720;23.344;2022-12-18T12:09:56;24.23;;;13.68;;
59263;SDS011;45030;42.720;23.344;2022-12-18T12:15:10;23.23;;;12.15;;
59263;SDS011;45030;42.720;23.344;2022-12-18T12:17:42;26.33;;;16.45;;
59263;SDS011;45030;42.720;23.344;2022-12-18T12:20:22;21.48;;;11.60;;
59263;SDS011;45030;42.720;23.344;2022-12-18T12:28:05;21.25;;;11.45;;
59263;SDS011;45030;42.720;23.344;2022-12-18T12:31:40;25.92;;;14.60;;
59263;SDS011;45030;42.720;23.344;2022-12-18T12:33:36;25.73;;;14.90;;
59263;SDS011;45030;42.720;23.344;2022-12-18T12:38:37;19.80;;;12.80;;
59263;SDS011;45030;42.720;23.344;2022-12-18T12:41:06;26.48;;;15.48;;
59263;SDS011;45030;42.720;23.344;2022-12-18T12:43:52;20.45;;;12.40;;
59263;SDS011;45030;42.720;23.344;2022-12-18T12:46:19;26.73;;;13.25;;
59263;SDS011;45030;42.720;23.344;2022-12-18T12:51:21;29.50;;;16.10;;
59263;SDS011;45030;42.720;23.344;2022-12-18T12:53:47;25.33;;;14.95;;
59263;SDS011;45030;42.720;23.344;2022-12-18T12:56:13;19.38;;;12.30;;
59263;SDS011;45030;42.720;23.344;2022-12-18T12:59:01;23.10;;;13.93;;
59263;SDS011;45030;42.720;23.344;2022-12-18T13:01:32;25.95;;;12.65;;
59263;SDS011;45030;42.720;23.344;2022-12-18T13:04:18;21.10;;;11.27;;
59263;SDS011;45030;42.720;23.344;2022-12-18T13:06:54;20.13;;;12.15;;
59263;SDS011;45030;42.720;23.344;2022-12-18T13:09:23;23.83;;;15.43;;
59263;SDS011;45030;42.720;23.344;2022-12-18T13:11:49;21.85;;;12.15;;
59263;SDS011;45030;42.720;23.344;2022-12-18T13:19:42;17.27;;;10.90;;
59263;SDS011;45030;42.720;23.344;2022-12-18T13:22:20;28.23;;;15.63;;
59263;SDS011;45030;42.720;23.344;2022-12-18T13:24:46;22.50;;;13.65;;
59263;SDS011;45030;42.720;23.344;2022-12-18T13:27:54;27.98;;;16.33;;
59263;SDS011;45030;42.720;23.344;2022-12-18T13:29:59;33.50;;;17.60;;
59263;SDS011;45030;42.720;23.344;2022-12-18T13:32:25;23.48;;;13.63;;
59263;SDS011;45030;42.720;23.344;2022-12-18T13:35:36;20.55;;;11.65;;
59263;SDS011;45030;42.720;23.344;2022-12-18T13:37:51;19.05;;;12.07;;
59263;SDS011;45030;42.720;23.344;2022-12-18T13:43:01;26.38;;;14.10;;
59263;SDS011;45030;42.720;23.344;2022-12-18T13:45:40;23.10;;;13.65;;
59263;SDS011;45030;42.720;23.344;2022-12-18T13:48:11;19.23;;;11.13;;
59263;SDS011;45030;42.720;23.344;2022-12-18T13:50:39;24.73;;;14.23;;
59263;SDS011;45030;42.720;23.344;2022-12-18T13:53:04;22.35;;;13.25;;
59263;SDS011;45030;42.720;23.344;2022-12-18T13:55:30;26.23;;;13.98;;
59263;SDS011;45030;42.720;23.344;2022-12-18T13:58:05;26.45;;;13.80;;
59263;SDS011;45030;42.720;23.344;2022-12-18T14:00:30;28.02;;;14.82;;
59263;SDS011;45030;42.720;23.344;2022-12-18T14:02:56;29.33;;;15.38;;
59263;SDS011;45030;42.720;23.344;2022-12-18T14:05:29;25.45;;;15.88;;
59263;SDS011;45030;42.720;23.344;2022-12-18T14:08:01;23.75;;;11.65;;
59263;SDS011;45030;42.720;23.344;2022-12-18T14:10:26;30.30;;;16.75;;
59263;SDS011;45030;42.720;23.344;2022-12-18T14:12:52;35.47;;;18.67;;
59263;SDS011;45030;42.720;23.344;2022-12-18T14:15:31;38.63;;;19.08;;
59263;SDS011;45030;42.720;23.344;2022-12-18T14:17:59;29.88;;;15.38;;
59263;SDS011;45030;42.720;23.344;2022-12-18T14:20:25;29.15;;;15.23;;
59263;SDS011;45030;42.720;23.344;2022-12-18T14:22:51;26.33;;;15.43;;
59263;SDS011;45030;42.720;23.344;2022-12-18T14:25:20;22.25;;;12.60;;
59263;SDS011;45030;42.720;23.344;2022-12-18T14:27:49;22.15;;;13.75;;
59263;SDS011;45030;42.720;23.344;2022-12-18T14:35:34;23.85;;;13.40;;
59263;SDS011;45030;42.720;23.344;2022-12-18T14:40:44;26.90;;;15.10;;
59263;SDS011;45030;42.720;23.344;2022-12-18T14:43:10;25.80;;;15.27;;
59263;SDS011;45030;42.720;23.344;2022-12-18T14:45:36;29.98;;;14.95;;
59263;SDS011;45030;42.720;23.344;2022-12-18T14:48:05;29.15;;;15.73;;
59263;SDS011;45030;42.720;23.344;2022-12-18T14:50:31;63.63;;;22.33;;
59263;SDS011;45030;42.720;23.344;2022-12-18T14:52:56;39.05;;;17.77;;
59263;SDS011;45030;42.720;23.344;2022-12-18T14:55:21;25.88;;;14.30;;
59263;SDS011;45030;42.720;23.344;2022-12-18T14:57:49;24.02;;;12.65;;
59263;SDS011;45030;42.720;23.344;2022-12-18T15:00:16;24.00;;;13.70;;
59263;SDS011;45030;42.720;23.344;2022-12-18T15:02:42;26.67;;;15.18;;
59263;SDS011;45030;42.720;23.344;2022-12-18T15:05:24;40.60;;;21.67;;
59263;SDS011;45030;42.720;23.344;2022-12-18T15:07:51;30.42;;;15.05;;
59263;SDS011;45030;42.720;23.344;2022-12-18T15:10:18;24.13;;;14.05;;
59263;SDS011;45030;42.720;23.344;2022-12-18T15:12:48;28.25;;;16.00;;
59263;SDS011;45030;42.720;23.344;2022-12-18T15:20:32;20.88;;;13.82;;
59263;SDS011;45030;42.720;23.344;2022-12-18T15:22:58;25.52;;;13.70;;
59263;SDS011;45030;42.720;23.344;2022-12-18T15:27:52;27.95;;;15.10;;
59263;SDS011;45030;42.720;23.344;2022-12-18T15:30:18;39.90;;;17.15;;
59263;SDS011;45030;42.720;23.344;2022-12-18T15:32:44;48.80;;;22.42;;
59263;SDS011;45030;42.720;23.344;2022-12-18T15:37:35;37.72;;;20.80;;
59263;SDS011;45030;42.720;23.344;2022-12-18T15:40:04;34.40;;;19.70;;
59263;SDS011;45030;42.720;23.344;2022-12-18T15:42:29;39.25;;;18.17;;
59263;SDS011;45030;42.720;23.344;2022-12-18T15:45:13;23.92;;;12.75;;
59263;SDS011;45030;42.720;23.344;2022-12-18T15:47:39;20.45;;;10.73;;
59263;SDS011;45030;42.720;23.344;2022-12-18T15:50:05;22.52;;;11.82;;
59263;SDS011;45030;42.720;23.344;2022-12-18T15:52:31;35.15;;;16.45;;
59263;SDS011;45030;42.720;23.344;2022-12-18T15:55:01;25.85;;;15.00;;